Terminal Aerodrome Forecast
Issued by NWS Salt Lake City, UT

Home | Current Version | Previous Version | Text Only | Print | Product List | Glossary On
Versions: 1 2 3 4 5 6 7 8 9 10 11 12 13 14 15 16 17
000
FTUS45 KSLC 181726
TAFCDC
TAF
KCDC 181726Z 1818/1918 24015G22KT P6SM SCT100 BKN140
     FM182000 22015G26KT P6SM SCT080 BKN120
     FM190200 19010KT P6SM VCSH SCT080 BKN100=

USA.gov is the U.S. government's official web portal to all federal, state and local government web resources and services.